createdAt,value
2023-08-30T00:02:00.410Z,38.51
2023-08-30T00:04:26.747Z,39.82
2023-08-30T00:06:53.052Z,44.21
2023-08-30T00:09:19.357Z,42.96
2023-08-30T00:11:45.847Z,40.56
2023-08-30T00:14:12.237Z,39.98
2023-08-30T00:16:38.563Z,41.22
2023-08-30T00:19:04.968Z,41.30
2023-08-30T00:21:31.287Z,40.93
2023-08-30T00:23:57.591Z,40.25
2023-08-30T00:26:23.955Z,39.29
2023-08-30T00:28:50.251Z,38.60
2023-08-30T00:31:16.600Z,38.50
2023-08-30T00:33:42.973Z,37.98
2023-08-30T00:36:09.258Z,38.07
2023-08-30T00:38:35.546Z,37.84
2023-08-30T00:41:01.917Z,38.12
2023-08-30T00:43:28.211Z,38.88
2023-08-30T00:45:54.601Z,37.90
2023-08-30T00:48:20.912Z,36.95
2023-08-30T00:50:47.232Z,37.15
2023-08-30T00:53:13.569Z,38.17
2023-08-30T00:55:39.914Z,38.43
2023-08-30T00:58:06.760Z,38.48
2023-08-30T01:00:33.414Z,38.27
2023-08-30T01:02:59.832Z,37.41
2023-08-30T01:05:26.304Z,39.68
2023-08-30T01:07:52.656Z,43.99
2023-08-30T01:10:19.020Z,41.76
2023-08-30T01:12:45.431Z,39.80
2023-08-30T01:15:11.771Z,39.75
2023-08-30T01:17:38.249Z,39.66
2023-08-30T01:20:04.753Z,40.13
2023-08-30T01:22:31.069Z,39.68
2023-08-30T01:24:57.417Z,38.97
2023-08-30T01:27:23.730Z,38.21
2023-08-30T01:29:50.021Z,39.79
2023-08-30T01:32:16.384Z,44.21
2023-08-30T01:34:42.717Z,41.88
2023-08-30T01:37:09.026Z,40.13
2023-08-30T01:39:35.375Z,40.09
2023-08-30T01:42:01.676Z,40.75
2023-08-30T01:44:27.958Z,40.80
2023-08-30T01:46:58.518Z,40.28
2023-08-30T01:49:24.896Z,39.53
2023-08-30T01:51:51.228Z,42.41
2023-08-30T01:54:17.601Z,45.47
2023-08-30T01:56:43.894Z,41.48
2023-08-30T01:59:10.186Z,39.99
2023-08-30T02:01:36.626Z,39.80
2023-08-30T02:04:02.961Z,41.24
2023-08-30T02:06:29.251Z,40.98
2023-08-30T02:08:55.659Z,40.59
2023-08-30T02:11:21.996Z,39.83
2023-08-30T02:13:48.308Z,38.99
2023-08-30T02:16:14.893Z,38.41
2023-08-30T02:18:41.232Z,38.01
2023-08-30T02:21:07.669Z,38.04
2023-08-30T02:23:34.059Z,38.27
2023-08-30T02:26:00.383Z,38.06
2023-08-30T02:28:26.677Z,37.81
2023-08-30T02:30:53.020Z,38.67
2023-08-30T02:33:19.323Z,37.18
2023-08-30T02:35:45.626Z,37.08
2023-08-30T02:38:12.180Z,37.79
2023-08-30T02:40:38.489Z,38.27
2023-08-30T02:43:04.825Z,38.78
2023-08-30T02:45:31.252Z,38.87
2023-08-30T02:47:57.670Z,41.71
2023-08-30T02:50:24.009Z,44.71
2023-08-30T02:52:50.444Z,41.44
2023-08-30T02:55:16.747Z,39.51
2023-08-30T02:57:43.049Z,39.82
2023-08-30T03:00:09.422Z,40.20
2023-08-30T03:02:35.861Z,40.14
2023-08-30T03:05:02.237Z,39.55
2023-08-30T03:07:28.609Z,38.78
2023-08-30T03:09:54.924Z,37.98
2023-08-30T03:12:21.243Z,40.77
2023-08-30T03:14:47.640Z,43.97
2023-08-30T03:17:13.922Z,41.50
2023-08-30T03:19:40.260Z,39.73
2023-08-30T03:22:06.809Z,39.68
2023-08-30T03:24:33.180Z,40.50
2023-08-30T03:26:59.485Z,40.19
2023-08-30T03:29:25.979Z,39.75
2023-08-30T03:31:52.296Z,39.00
2023-08-30T03:34:18.602Z,38.30
2023-08-30T03:36:44.995Z,38.28
2023-08-30T03:39:11.297Z,38.00
2023-08-30T03:41:37.601Z,37.72
2023-08-30T03:44:03.960Z,37.58
2023-08-30T03:46:30.306Z,37.68
2023-08-30T03:48:56.597Z,38.49
2023-08-30T03:51:23.020Z,36.63
2023-08-30T03:53:49.420Z,35.73
2023-08-30T03:56:15.793Z,36.02
2023-08-30T03:58:42.319Z,38.15
2023-08-30T04:01:08.668Z,39.00
2023-08-30T04:03:35.049Z,39.46
2023-08-30T04:06:01.681Z,40.71
2023-08-30T04:08:28.032Z,44.85
2023-08-30T04:10:54.337Z,42.38
2023-08-30T04:13:41.416Z,39.98
2023-08-30T04:16:27.746Z,39.73
2023-08-30T04:19:14.554Z,40.34
2023-08-30T04:22:00.724Z,39.73
2023-08-30T04:24:27.078Z,39.52
2023-08-30T04:26:53.444Z,38.30
2023-08-30T04:29:19.784Z,37.86
2023-08-30T04:31:46.136Z,42.39
2023-08-30T04:34:12.459Z,43.44
2023-08-30T04:36:38.763Z,40.17
2023-08-30T04:39:05.080Z,39.14
2023-08-30T04:41:31.402Z,39.41
2023-08-30T04:43:57.724Z,40.21
2023-08-30T04:46:24.055Z,39.38
2023-08-30T04:48:50.363Z,39.10
2023-08-30T04:51:16.663Z,38.40
2023-08-30T04:53:42.999Z,38.07
2023-08-30T04:56:09.341Z,37.88
2023-08-30T04:58:35.717Z,37.50
2023-08-30T05:01:02.035Z,37.68
2023-08-30T05:03:29.975Z,37.71
2023-08-30T05:06:00.958Z,37.90
2023-08-30T05:08:27.277Z,36.88
2023-08-30T05:10:53.568Z,36.12
2023-08-30T05:13:19.901Z,36.21
2023-08-30T05:15:46.230Z,37.84
2023-08-30T05:18:12.850Z,38.67
2023-08-30T05:20:39.395Z,39.03
2023-08-30T05:23:05.747Z,38.65
2023-08-30T05:25:32.072Z,37.93
2023-08-30T05:27:58.406Z,39.42
2023-08-30T05:30:24.793Z,43.85
2023-08-30T05:32:51.238Z,41.77
2023-08-30T05:35:17.620Z,39.34
2023-08-30T05:37:43.952Z,39.58
2023-08-30T05:40:10.247Z,40.53
2023-08-30T05:42:36.594Z,40.30
2023-08-30T05:45:02.918Z,39.76
2023-08-30T05:47:29.405Z,39.34
2023-08-30T05:49:55.750Z,37.93
2023-08-30T05:52:22.085Z,39.47
2023-08-30T05:54:48.521Z,42.94
2023-08-30T05:57:15.019Z,41.48
2023-08-30T05:59:41.372Z,39.35
2023-08-30T06:02:07.768Z,39.26
2023-08-30T06:04:35.739Z,40.42
2023-08-30T06:07:02.113Z,40.25
2023-08-30T06:09:28.401Z,39.88
2023-08-30T06:11:55.133Z,38.94
2023-08-30T06:14:21.464Z,43.17
2023-08-30T06:16:47.809Z,44.14
2023-08-30T06:19:14.189Z,40.71
2023-08-30T06:21:42.963Z,39.59
2023-08-30T06:24:09.277Z,39.90
2023-08-30T06:26:35.672Z,41.26
2023-08-30T06:29:04.805Z,40.40
2023-08-30T06:31:31.884Z,40.24
2023-08-30T06:33:58.408Z,39.00
2023-08-30T06:36:24.828Z,38.47
2023-08-30T06:38:51.193Z,38.40
2023-08-30T06:41:17.564Z,38.21
2023-08-30T06:43:43.985Z,37.93
2023-08-30T06:46:10.539Z,37.77
2023-08-30T06:48:36.980Z,37.63
2023-08-30T06:51:04.632Z,38.26
2023-08-30T06:53:31.012Z,37.27
2023-08-30T06:55:57.338Z,35.93
2023-08-30T06:58:23.705Z,35.59
2023-08-30T07:00:50.045Z,36.48
2023-08-30T07:03:16.479Z,37.24
2023-08-30T07:05:43.039Z,38.12
2023-08-30T07:08:09.660Z,37.75
2023-08-30T07:10:36.128Z,41.46
2023-08-30T07:13:02.571Z,44.06
2023-08-30T07:15:28.925Z,40.86
2023-08-30T07:17:57.344Z,39.98
2023-08-30T07:20:25.416Z,39.69
2023-08-30T07:22:51.758Z,40.85
2023-08-30T07:25:18.969Z,40.24
2023-08-30T07:27:45.891Z,39.79
2023-08-30T07:30:12.268Z,38.83
2023-08-30T07:32:38.665Z,37.89
2023-08-30T07:35:05.109Z,41.94
2023-08-30T07:37:31.542Z,43.67
2023-08-30T07:39:58.102Z,40.44
2023-08-30T07:42:25.194Z,39.95
2023-08-30T07:44:51.560Z,40.77
2023-08-30T07:47:17.900Z,41.27
2023-08-30T07:49:44.348Z,41.00
2023-08-30T07:52:10.720Z,40.81
2023-08-30T07:54:37.168Z,39.66
2023-08-30T07:57:08.557Z,38.57
2023-08-30T07:59:34.932Z,42.22
2023-08-30T08:02:01.386Z,44.39
2023-08-30T08:04:27.874Z,41.15
2023-08-30T08:06:56.813Z,40.33
2023-08-30T08:09:23.680Z,40.25
2023-08-30T08:11:52.489Z,40.88
2023-08-30T08:14:18.892Z,40.81
2023-08-30T08:16:45.399Z,40.22
2023-08-30T08:19:11.965Z,40.53
2023-08-30T08:21:38.286Z,44.49
2023-08-30T08:24:04.653Z,42.58
2023-08-30T08:26:31.231Z,40.76
2023-08-30T08:28:57.644Z,40.88
2023-08-30T08:31:24.321Z,41.64
2023-08-30T08:33:50.761Z,41.47
2023-08-30T08:36:17.540Z,41.15
2023-08-30T08:38:43.988Z,40.07
2023-08-30T08:41:10.474Z,44.41
2023-08-30T08:43:36.913Z,44.46
2023-08-30T08:46:03.376Z,41.67
2023-08-30T08:48:29.792Z,40.56
2023-08-30T08:50:56.252Z,41.11
2023-08-30T08:53:22.761Z,41.71
2023-08-30T08:55:49.260Z,41.17
2023-08-30T08:58:15.597Z,40.62
2023-08-30T09:00:42.343Z,39.62
2023-08-30T09:03:09.846Z,38.80
2023-08-30T09:05:38.352Z,43.57
2023-08-30T09:08:04.773Z,44.31
2023-08-30T09:10:31.377Z,41.25
2023-08-30T09:12:57.811Z,41.04
2023-08-30T09:15:24.156Z,41.56
2023-08-30T09:17:51.805Z,42.28
2023-08-30T09:20:18.130Z,41.61
2023-08-30T09:22:44.536Z,41.01
2023-08-30T09:25:12.242Z,40.00
2023-08-30T09:27:38.588Z,39.16
2023-08-30T09:30:04.914Z,43.97
2023-08-30T09:32:32.595Z,44.62
2023-08-30T09:34:59.022Z,41.65
2023-08-30T09:37:25.632Z,40.44
2023-08-30T09:39:51.979Z,40.75
2023-08-30T09:42:18.539Z,42.08
2023-08-30T09:44:45.060Z,41.61
2023-08-30T09:47:11.593Z,41.09
2023-08-30T09:49:38.057Z,40.14
2023-08-30T09:52:04.484Z,39.31
2023-08-30T09:57:00.220Z,39.87
2023-08-30T09:59:26.537Z,39.55
2023-08-30T10:01:52.974Z,39.66
2023-08-30T10:04:19.440Z,39.72
2023-08-30T10:06:45.837Z,40.15
2023-08-30T10:09:12.194Z,38.53
2023-08-30T10:11:39.752Z,37.73
2023-08-30T10:14:06.056Z,37.37
2023-08-30T10:16:32.519Z,38.01
2023-08-30T10:19:05.493Z,39.49
2023-08-30T10:21:32.338Z,39.64
2023-08-30T10:23:58.730Z,39.10
2023-08-30T10:26:25.069Z,38.68
2023-08-30T10:28:51.354Z,42.76
2023-08-30T10:31:17.835Z,45.82
2023-08-30T10:33:44.248Z,42.53
2023-08-30T10:36:10.558Z,40.70
2023-08-30T10:38:36.906Z,39.50
2023-08-30T10:41:03.205Z,41.35
2023-08-30T10:43:29.838Z,41.63
2023-08-30T10:45:58.503Z,41.92
2023-08-30T10:48:25.070Z,41.13
2023-08-30T10:50:51.387Z,40.70
2023-08-30T10:53:17.830Z,43.31
2023-08-30T10:55:44.391Z,47.01
2023-08-30T10:58:10.834Z,44.00
2023-08-30T11:00:39.707Z,41.81
2023-08-30T11:03:06.097Z,41.15
2023-08-30T11:05:32.615Z,42.18
2023-08-30T11:08:00.485Z,42.18
2023-08-30T11:10:26.909Z,41.93
2023-08-30T11:12:53.413Z,40.88
2023-08-30T11:15:19.925Z,39.96
2023-08-30T11:17:46.399Z,42.40
2023-08-30T11:20:12.956Z,47.10
2023-08-30T11:22:39.361Z,43.94
2023-08-30T11:25:05.752Z,41.75
2023-08-30T11:27:32.152Z,40.93
2023-08-30T11:29:59.640Z,41.96
2023-08-30T11:32:25.989Z,42.26
2023-08-30T11:34:52.360Z,42.20
2023-08-30T11:37:19.984Z,41.33
2023-08-30T11:39:46.792Z,40.66
2023-08-30T11:42:19.079Z,41.94
2023-08-30T11:44:45.729Z,47.29
2023-08-30T11:47:17.742Z,44.83
2023-08-30T11:49:44.155Z,42.77
2023-08-30T11:52:10.707Z,41.82
2023-08-30T11:54:39.710Z,41.85
2023-08-30T11:57:06.166Z,41.89
2023-08-30T11:59:32.569Z,42.04
2023-08-30T12:02:01.560Z,41.21
2023-08-30T12:06:26.442Z,40.10
2023-08-30T12:08:52.975Z,44.90
2023-08-30T12:11:19.318Z,46.00
2023-08-30T12:13:45.718Z,43.31
2023-08-30T12:16:12.140Z,41.34
2023-08-30T12:18:38.492Z,40.53
2023-08-30T12:21:04.904Z,40.93
2023-08-30T12:23:31.411Z,41.60
2023-08-30T12:25:57.760Z,41.49
2023-08-30T12:28:24.119Z,41.31
2023-08-30T12:30:50.549Z,40.43
2023-08-30T12:33:17.046Z,45.28
2023-08-30T12:35:43.503Z,46.82
2023-08-30T12:38:11.092Z,43.47
2023-08-30T12:40:37.410Z,40.99
2023-08-30T12:43:03.753Z,40.11
2023-08-30T12:45:31.400Z,40.57
2023-08-30T12:47:57.783Z,40.99
2023-08-30T12:50:24.181Z,41.16
2023-08-30T12:52:51.831Z,40.04
2023-08-30T12:55:18.254Z,39.59
2023-08-30T12:57:44.617Z,43.92
2023-08-30T13:00:11.039Z,47.35
2023-08-30T13:02:37.490Z,43.42
2023-08-30T13:05:03.983Z,40.99
2023-08-30T13:07:30.366Z,39.91
2023-08-30T13:09:56.730Z,41.45
2023-08-30T13:12:23.168Z,42.16
2023-08-30T13:14:49.691Z,42.23
2023-08-30T13:17:16.096Z,41.59
2023-08-30T13:19:42.497Z,40.78
2023-08-30T13:22:09.264Z,43.64
2023-08-30T13:24:35.719Z,47.24
2023-08-30T13:27:03.417Z,44.47
2023-08-30T13:29:29.829Z,42.26
2023-08-30T13:31:56.369Z,40.26
2023-08-30T13:34:22.943Z,41.45
2023-08-30T13:36:49.297Z,43.03
2023-08-30T13:39:15.695Z,42.68
2023-08-30T13:41:42.107Z,42.13
2023-08-30T13:44:11.067Z,41.05
2023-08-30T13:46:37.816Z,42.66
2023-08-30T13:49:04.381Z,47.55
2023-08-30T13:51:30.780Z,46.27
2023-08-30T13:53:57.206Z,43.36
2023-08-30T13:56:23.765Z,41.99
2023-08-30T13:58:51.603Z,41.99
2023-08-30T14:01:17.958Z,42.22
2023-08-30T14:03:44.318Z,42.29
2023-08-30T14:06:10.884Z,41.87
2023-08-30T14:08:37.426Z,41.04
2023-08-30T14:11:03.963Z,40.48
2023-08-30T14:13:30.598Z,45.97
2023-08-30T14:15:57.227Z,46.34
2023-08-30T14:18:23.809Z,43.18
2023-08-30T14:20:50.434Z,41.19
2023-08-30T14:23:17.473Z,40.38
2023-08-30T14:25:43.905Z,41.33
2023-08-30T14:28:11.837Z,41.26
2023-08-30T14:30:38.385Z,41.29
2023-08-30T14:33:04.723Z,40.83
2023-08-30T14:35:31.073Z,40.29
2023-08-30T14:37:57.418Z,45.07
2023-08-30T14:40:23.772Z,48.04
2023-08-30T14:42:50.168Z,43.66
2023-08-30T14:45:16.518Z,41.55
2023-08-30T14:47:42.857Z,40.97
2023-08-30T14:50:09.255Z,40.50
2023-08-30T14:52:35.566Z,40.43
2023-08-30T14:55:01.910Z,40.92
2023-08-30T14:57:28.721Z,40.07
2023-08-30T14:59:55.085Z,39.91
2023-08-30T15:02:21.597Z,42.79
2023-08-30T15:04:47.935Z,47.79
2023-08-30T15:07:14.253Z,44.13
2023-08-30T15:09:40.545Z,41.57
2023-08-30T15:12:09.303Z,40.44
2023-08-30T15:14:36.990Z,40.46
2023-08-30T15:17:03.328Z,40.98
2023-08-30T15:19:29.676Z,41.36
2023-08-30T15:21:55.978Z,40.86
2023-08-30T15:24:22.297Z,40.24
2023-08-30T15:26:48.619Z,42.99
2023-08-30T15:29:14.965Z,47.57
2023-08-30T15:31:41.322Z,44.42
2023-08-30T15:34:07.755Z,42.00
2023-08-30T15:36:34.106Z,39.99
2023-08-30T15:39:00.407Z,40.83
2023-08-30T15:41:26.721Z,41.73
2023-08-30T15:43:53.081Z,41.80
2023-08-30T15:46:19.376Z,41.34
2023-08-30T15:48:45.736Z,40.67
2023-08-30T15:51:22.978Z,41.44
2023-08-30T15:53:51.021Z,47.62
2023-08-30T15:56:17.372Z,45.58
2023-08-30T15:58:43.698Z,42.38
2023-08-30T16:01:10.090Z,40.62
2023-08-30T16:03:36.955Z,40.81
2023-08-30T16:06:03.432Z,40.42
2023-08-30T16:08:29.773Z,41.01
2023-08-30T16:10:56.151Z,40.62
2023-08-30T16:13:22.460Z,39.89
2023-08-30T16:15:48.806Z,40.14
2023-08-30T16:18:15.136Z,46.06
2023-08-30T16:20:41.446Z,45.24
2023-08-30T16:23:07.929Z,42.47
2023-08-30T16:25:34.269Z,40.85
2023-08-30T16:28:00.565Z,40.50
2023-08-30T16:30:26.974Z,40.87
2023-08-30T16:32:53.320Z,40.98
2023-08-30T16:35:19.634Z,40.74
2023-08-30T16:37:46.077Z,39.96
2023-08-30T16:40:12.373Z,39.55
2023-08-30T16:42:38.655Z,44.88
2023-08-30T16:45:04.977Z,46.09
2023-08-30T16:47:32.398Z,43.12
2023-08-30T16:50:00.162Z,40.85
2023-08-30T16:52:26.593Z,40.49
2023-08-30T16:54:52.895Z,41.38
2023-08-30T16:57:19.212Z,41.18
2023-08-30T16:59:45.585Z,40.88
2023-08-30T17:02:11.933Z,39.78
2023-08-30T17:04:38.260Z,39.38
2023-08-30T17:07:08.027Z,44.42
2023-08-30T17:09:34.867Z,46.17
2023-08-30T17:12:01.368Z,42.79
2023-08-30T17:14:29.123Z,40.59
2023-08-30T17:19:22.001Z,40.58
2023-08-30T17:21:52.724Z,40.53
2023-08-30T17:24:19.445Z,40.18
2023-08-30T17:26:46.095Z,39.51
2023-08-30T17:29:13.673Z,38.75
2023-08-30T17:31:40.011Z,43.30
2023-08-30T17:34:06.317Z,45.67
2023-08-30T17:36:36.114Z,42.31
2023-08-30T17:39:02.513Z,40.53
2023-08-30T17:41:28.898Z,40.79
2023-08-30T17:43:55.203Z,42.21
2023-08-30T17:46:21.584Z,41.51
2023-08-30T17:48:47.940Z,41.15
2023-08-30T17:51:14.244Z,40.40
2023-08-30T17:53:40.567Z,39.05
2023-08-30T17:56:06.899Z,43.38
2023-08-30T17:58:33.229Z,46.08
2023-08-30T18:00:59.554Z,42.33
2023-08-30T18:03:25.908Z,41.36
2023-08-30T18:05:52.510Z,41.78
2023-08-30T18:08:18.854Z,42.76
2023-08-30T18:10:45.146Z,42.39
2023-08-30T18:13:11.724Z,41.67
2023-08-30T18:15:38.216Z,40.54
2023-08-30T18:18:04.501Z,39.40
2023-08-30T18:20:30.835Z,43.28
2023-08-30T18:22:57.150Z,46.26
2023-08-30T18:25:23.494Z,42.65
2023-08-30T18:27:49.869Z,40.74
2023-08-30T18:30:16.943Z,41.10
2023-08-30T18:32:43.268Z,41.77
2023-08-30T18:35:10.631Z,41.49
2023-08-30T18:37:37.157Z,41.17
2023-08-30T18:40:03.461Z,40.18
2023-08-30T18:42:29.818Z,39.20
2023-08-30T18:44:56.224Z,42.63
2023-08-30T18:47:22.566Z,46.27
2023-08-30T18:49:48.933Z,42.68
2023-08-30T18:52:15.432Z,41.28
2023-08-30T18:54:41.814Z,41.36
2023-08-30T18:57:09.577Z,41.93
2023-08-30T18:59:36.767Z,41.45
2023-08-30T19:02:03.103Z,41.02
2023-08-30T19:04:29.453Z,39.73
2023-08-30T19:06:55.920Z,38.97
2023-08-30T19:09:22.216Z,42.15
2023-08-30T19:11:48.550Z,46.12
2023-08-30T19:14:14.968Z,42.63
2023-08-30T19:16:41.370Z,41.41
2023-08-30T19:19:07.721Z,41.21
2023-08-30T19:21:34.063Z,42.38
2023-08-30T19:24:00.369Z,41.88
2023-08-30T19:26:26.770Z,41.38
2023-08-30T19:28:53.491Z,40.07
2023-08-30T19:31:19.875Z,39.27
2023-08-30T19:33:46.298Z,42.07
2023-08-30T19:36:12.627Z,46.53
2023-08-30T19:38:38.912Z,42.66
2023-08-30T19:41:05.254Z,40.76
2023-08-30T19:43:31.576Z,41.10
2023-08-30T19:45:57.858Z,42.10
2023-08-30T19:48:24.291Z,41.40
2023-08-30T19:50:50.621Z,40.66
2023-08-30T19:53:16.970Z,39.78
2023-08-30T19:55:43.310Z,38.66
2023-08-30T19:58:09.694Z,38.73
2023-08-30T20:00:36.000Z,38.85
2023-08-30T20:03:02.763Z,39.05
2023-08-30T20:05:29.124Z,38.69
2023-08-30T20:07:55.472Z,38.76
2023-08-30T20:10:21.835Z,39.64
2023-08-30T20:12:48.132Z,37.70
2023-08-30T20:15:14.461Z,37.30
2023-08-30T20:17:40.808Z,37.45
2023-08-30T20:20:07.226Z,39.56
2023-08-30T20:22:33.602Z,39.82
2023-08-30T20:24:59.964Z,39.84
2023-08-30T20:27:26.296Z,39.02
2023-08-30T20:29:52.648Z,38.64
2023-08-30T20:32:18.993Z,42.01
2023-08-30T20:34:45.311Z,45.89
2023-08-30T20:37:11.671Z,41.90
2023-08-30T20:39:37.964Z,40.07
2023-08-30T20:42:04.271Z,39.98
2023-08-30T20:44:30.593Z,40.16
2023-08-30T20:46:56.945Z,39.82
2023-08-30T20:49:23.253Z,39.61
2023-08-30T20:51:49.676Z,39.91
2023-08-30T20:54:16.401Z,45.20
2023-08-30T20:56:42.722Z,43.50
2023-08-30T20:59:09.068Z,40.92
2023-08-30T21:01:35.389Z,40.45
2023-08-30T21:04:01.832Z,41.36
2023-08-30T21:06:28.640Z,41.89
2023-08-30T21:08:55.275Z,41.11
2023-08-30T21:11:21.606Z,40.64
2023-08-30T21:13:47.932Z,39.53
2023-08-30T21:16:14.288Z,38.92
2023-08-30T21:18:40.760Z,44.77
2023-08-30T21:21:07.082Z,44.36
2023-08-30T21:23:33.464Z,41.57
2023-08-30T21:25:59.772Z,40.69
2023-08-30T21:28:26.144Z,40.71
2023-08-30T21:30:52.628Z,41.16
2023-08-30T21:33:19.066Z,41.28
2023-08-30T21:35:45.588Z,40.70
2023-08-30T21:38:11.925Z,39.38
2023-08-30T21:40:38.256Z,38.58
2023-08-30T21:43:04.741Z,43.90
2023-08-30T21:45:31.041Z,45.10
2023-08-30T21:47:57.382Z,41.63
2023-08-30T21:50:24.159Z,40.76
2023-08-30T21:52:50.527Z,40.94
2023-08-30T21:55:16.898Z,41.78
2023-08-30T21:57:43.251Z,41.00
2023-08-30T22:00:09.578Z,40.54
2023-08-30T22:02:35.956Z,39.75
2023-08-30T22:05:02.814Z,39.15
2023-08-30T22:07:29.143Z,39.14
2023-08-30T22:09:55.467Z,39.01
2023-08-30T22:12:22.209Z,38.86
2023-08-30T22:14:50.103Z,38.65
2023-08-30T22:17:16.668Z,38.97
2023-08-30T22:19:42.978Z,38.96
2023-08-30T22:22:09.351Z,38.66
2023-08-30T22:24:35.696Z,37.50
2023-08-30T22:27:02.098Z,36.44
2023-08-30T22:29:28.463Z,36.80
2023-08-30T22:31:54.740Z,38.24
2023-08-30T22:34:21.090Z,38.85
2023-08-30T22:36:47.471Z,38.64
2023-08-30T22:39:13.788Z,37.97
2023-08-30T22:41:41.301Z,37.99
2023-08-30T22:44:07.656Z,43.24
2023-08-30T22:46:33.980Z,43.84
2023-08-30T22:49:00.342Z,40.83
2023-08-30T22:51:26.723Z,40.32
2023-08-30T22:53:53.041Z,40.50
2023-08-30T22:56:19.398Z,40.44
2023-08-30T22:58:45.839Z,40.72
2023-08-30T23:01:12.208Z,40.55
2023-08-30T23:03:38.653Z,39.76
2023-08-30T23:06:05.010Z,38.52
2023-08-30T23:08:31.323Z,43.79
2023-08-30T23:10:57.732Z,44.96
2023-08-30T23:13:24.085Z,41.49
2023-08-30T23:15:50.395Z,41.19
2023-08-30T23:18:16.785Z,41.53
2023-08-30T23:20:43.112Z,42.42
2023-08-30T23:23:09.631Z,41.51
2023-08-30T23:25:36.269Z,41.19
2023-08-30T23:28:02.640Z,40.11
2023-08-30T23:30:29.032Z,39.23
2023-08-30T23:32:55.611Z,43.32
2023-08-30T23:35:21.932Z,45.46
2023-08-30T23:37:48.244Z,42.02
2023-08-30T23:40:14.605Z,41.18
2023-08-30T23:42:40.936Z,41.96
2023-08-30T23:45:07.269Z,42.31
2023-08-30T23:47:33.648Z,41.94
2023-08-30T23:50:00.020Z,41.15
2023-08-30T23:52:26.326Z,40.25
2023-08-30T23:54:52.629Z,39.14
2023-08-30T23:57:18.961Z,43.61
2023-08-30T23:59:45.285Z,45.89
